Time;durP1;ratioP1;P1;durP2;ratioP2;P2;SDS_P1;SDS_P2;PMS_P1;PMS_P2;Temp;Humidity;BMP_temperature;BMP_pressure;BME280_temperature;BME280_humidity;BME280_pressure;Samples;Min_cycle;Max_cycle;Signal;HPM_P1;HPM_P2
2022/09/05 00:01:23;;;;;;;2.20;1.23;;;30.10;74.00;;;;;;5038364;28;92075;-52
2022/09/05 00:03:56;;;;;;;4.23;1.57;;;;;;;;;;5038531;28;92100;-53
2022/09/05 00:06:37;;;;;;;2.70;1.40;;;30.10;74.00;;;;;;5038003;28;93241;-53
2022/09/05 00:09:07;;;;;;;1.57;1.23;;;30.10;76.80;;;;;;5037020;28;93916;-52
2022/09/05 00:11:38;;;;;;;2.00;1.40;;;30.10;76.70;;;;;;5037514;28;92070;-53
2022/09/05 00:14:24;;;;;;;1.30;1.10;;;30.10;76.70;;;;;;5038282;28;91435;-52
2022/09/05 00:17:15;;;;;;;2.20;1.13;;;;;;;;;;5045884;27;95365;-52
2022/09/05 00:19:45;;;;;;;1.47;1.07;;;30.00;73.90;;;;;;5029116;27;93971;-52
2022/09/05 00:22:39;;;;;;;2.20;1.57;;;30.00;76.40;;;;;;5040509;28;92976;-54
2022/09/05 00:25:41;;;;;;;2.10;1.20;;;30.00;76.40;;;;;;5039812;28;93352;-54
2022/09/05 00:28:13;;;;;;;2.10;1.40;;;30.00;76.40;;;;;;5040641;28;94198;-53
2022/09/05 00:31:18;;;;;;;2.00;1.53;;;30.00;76.40;;;;;;5039184;28;92887;-54
2022/09/05 00:34:15;;;;;;;3.27;2.03;;;30.00;76.40;;;;;;5036709;28;92145;-56
2022/09/05 00:36:44;;;;;;;3.90;1.57;;;;;;;;;;5041171;28;92062;-54
2022/09/05 00:39:14;;;;;;;3.10;1.60;;;29.90;73.60;;;;;;5039881;28;94182;-52
2022/09/05 00:41:43;;;;;;;1.40;1.30;;;;;;;;;;5040173;27;92790;-52
2022/09/05 00:44:11;;;;;;;1.93;1.40;;;29.90;73.40;;;;;;5040548;28;92224;-52
2022/09/05 00:46:41;;;;;;;2.40;1.53;;;30.00;76.30;;;;;;5040346;28;92113;-54
2022/09/05 00:49:17;;;;;;;3.20;1.70;;;29.50;75.80;;;;;;5039284;28;95090;-52
2022/09/05 00:51:49;;;;;;;2.83;1.90;;;30.00;76.10;;;;;;5039836;28;94892;-53
2022/09/05 00:54:53;;;;;;;2.53;1.40;;;30.00;76.10;;;;;;5039599;27;92070;-53
2022/09/05 00:57:32;;;;;;;2.63;1.43;;;29.90;76.10;;;;;;4947737;28;92044;-52
2022/09/05 01:00:25;;;;;;;2.57;1.90;;;29.90;76.00;;;;;;5031052;28;94178;-52
2022/09/05 01:03:40;;;;;;;4.80;1.90;;;29.90;75.90;;;;;;5040511;28;94123;-52
2022/09/05 01:06:21;;;;;;;4.43;2.30;;;29.90;76.00;;;;;;4993787;28;92180;-53
2022/09/05 01:09:00;;;;;;;3.93;1.50;;;29.90;75.90;;;;;;5041410;28;91384;-52
2022/09/05 01:11:42;;;;;;;2.43;2.00;;;30.20;76.30;;;;;;5035060;28;93571;-52
2022/09/05 01:14:18;;;;;;;3.03;1.57;;;29.90;76.10;;;;;;5040782;28;94106;-52
2022/09/05 01:17:10;;;;;;;3.63;2.00;;;29.90;76.00;;;;;;5050550;27;93894;-52
2022/09/05 01:19:45;;;;;;;4.10;2.13;;;29.90;76.00;;;;;;5025712;28;92115;-53
2022/09/05 01:22:49;;;;;;;3.90;1.87;;;29.90;75.90;;;;;;5040522;28;94108;-52
2022/09/05 01:25:32;;;;;;;3.57;2.30;;;29.90;75.90;;;;;;4998745;28;92547;-52
2022/09/05 01:28:02;;;;;;;2.30;1.67;;;29.70;75.70;;;;;;5020119;28;92216;-52
2022/09/05 01:30:52;;;;;;;3.13;1.93;;;29.80;75.70;;;;;;5036427;27;92284;-52
2022/09/05 01:33:25;;;;;;;3.70;1.87;;;29.70;75.50;;;;;;5044929;27;93188;-52
2022/09/05 01:36:18;;;;;;;3.90;1.77;;;29.80;75.70;;;;;;5046924;27;92812;-54
2022/09/05 01:38:51;;;;;;;2.93;1.67;;;29.70;75.60;;;;;;5046660;27;92619;-53
2022/09/05 01:41:43;;;;;;;2.20;1.33;;;29.70;75.50;;;;;;5044837;27;92019;-53
2022/09/05 01:44:18;;;;;;;3.00;1.67;;;29.80;75.70;;;;;;5047230;27;95250;-54
2022/09/05 01:46:54;;;;;;;3.83;1.80;;;29.70;75.60;;;;;;5047981;27;93951;-52
2022/09/05 01:49:33;;;;;;;2.93;1.73;;;29.70;75.60;;;;;;5047675;27;92232;-52
2022/09/05 01:52:20;;;;;;;2.07;1.57;;;29.70;75.50;;;;;;5046809;27;91950;-52
2022/09/05 01:54:56;;;;;;;2.83;1.90;;;29.70;75.30;;;;;;5046141;27;94296;-53
2022/09/05 01:57:29;;;;;;;2.73;1.83;;;29.70;75.30;;;;;;5045788;27;92740;-52
2022/09/05 02:00:04;;;;;;;2.87;1.80;;;29.70;75.30;;;;;;5043357;27;92232;-53
2022/09/05 02:02:41;;;;;;;2.47;2.10;;;29.70;75.20;;;;;;5044212;27;91343;-54
2022/09/05 02:05:30;;;;;;;3.90;2.40;;;29.70;75.20;;;;;;5046721;27;93096;-52
2022/09/05 02:08:35;;;;;;;5.70;2.67;;;29.70;75.20;;;;;;5042214;27;93807;-52
2022/09/05 02:11:06;;;;;;;4.43;2.80;;;29.70;75.10;;;;;;5045695;27;93077;-52
2022/09/05 02:13:52;;;;;;;5.20;3.50;;;29.70;75.20;;;;;;5044023;27;92098;-53
2022/09/05 02:16:26;;;;;;;6.00;3.60;;;29.50;75.10;;;;;;5037904;28;93295;-52
2022/09/05 02:18:57;;;;;;;9.60;4.27;;;29.70;75.20;;;;;;5039816;28;92212;-52
2022/09/05 02:21:38;;;;;;;7.27;4.27;;;29.70;75.20;;;;;;5038900;28;92119;-54
2022/09/05 02:24:26;;;;;;;9.90;4.60;;;29.70;76.00;;;;;;5044529;27;92687;-53
2022/09/05 02:26:58;;;;;;;8.50;4.50;;;;;;;;;;5046476;27;93108;-52
2022/09/05 02:29:29;;;;;;;8.33;4.73;;;29.60;72.50;;;;;;5049094;27;92924;-53
2022/09/05 02:32:01;;;;;;;9.13;4.20;;;29.60;75.20;;;;;;5039032;27;92038;-53
2022/09/05 02:34:34;;;;;;;8.47;4.67;;;29.60;75.20;;;;;;5039074;28;92066;-53
2022/09/05 02:37:05;;;;;;;8.97;4.83;;;29.60;75.10;;;;;;5038541;28;94046;-53
2022/09/05 02:39:36;;;;;;;11.73;4.73;;;29.60;75.10;;;;;;5038973;28;94876;-53
2022/09/05 02:42:27;;;;;;;6.93;3.70;;;29.60;75.00;;;;;;5039626;27;92010;-53
2022/09/05 02:45:22;;;;;;;9.90;5.03;;;29.60;75.00;;;;;;5034464;28;92213;-53
2022/09/05 02:48:02;;;;;;;8.53;4.27;;;29.60;75.00;;;;;;5039128;28;94200;-52
2022/09/05 02:50:57;;;;;;;6.97;3.63;;;29.60;75.00;;;;;;5039298;28;93854;-53
2022/09/05 02:53:46;;;;;;;6.37;4.10;;;29.60;75.20;;;;;;5039177;28;92051;-52
2022/09/05 02:56:52;;;;;;;7.10;3.97;;;;;;;;;;5033054;28;91316;-53
2022/09/05 02:59:47;;;;;;;8.43;4.00;;;29.50;72.50;;;;;;5039112;28;92031;-53
2022/09/05 03:02:19;;;;;;;8.27;4.27;;;29.50;75.00;;;;;;5041634;27;93801;-53
2022/09/05 03:04:58;;;;;;;6.73;4.00;;;29.50;75.10;;;;;;5038643;28;92928;-53
2022/09/05 03:07:37;;;;;;;7.83;3.23;;;;;;;;;;5039371;28;91989;-53
2022/09/05 03:10:17;;;;;;;6.03;4.20;;;29.50;72.20;;;;;;5038172;28;94104;-53
2022/09/05 03:13:18;;;;;;;4.90;3.10;;;29.50;74.80;;;;;;5038145;28;93803;-53
2022/09/05 03:16:34;;;;;;;6.90;3.90;;;29.50;75.00;;;;;;5025836;28;92115;-53
2022/09/05 03:19:57;;;;;;;6.63;3.23;;;29.50;74.80;;;;;;4950019;28;92174;-53
2022/09/05 03:22:55;;;;;;;6.90;3.37;;;29.50;74.90;;;;;;4917421;28;94293;-52
2022/09/05 03:25:58;;;;;;;7.50;3.23;;;29.50;74.90;;;;;;4975793;28;92937;-54
2022/09/05 03:28:50;;;;;;;5.37;3.17;;;;;;;;;;5036160;28;92428;-54
2022/09/05 03:31:25;;;;;;;4.20;2.70;;;29.60;72.40;;;;;;4963141;28;93286;-54
2022/09/05 03:34:11;;;;;;;4.53;2.57;;;;;;;;;;5036742;28;95112;-54
2022/09/05 03:37:02;;;;;;;4.33;2.60;;;29.40;72.10;;;;;;4996531;28;92628;-54
2022/09/05 03:39:46;;;;;;;4.67;3.00;;;29.40;74.80;;;;;;5037382;28;92130;-52
2022/09/05 03:42:26;;;;;;;4.67;3.17;;;29.40;74.80;;;;;;4994760;27;92304;-53
2022/09/05 03:45:13;;;;;;;4.93;2.97;;;29.40;74.60;;;;;;5034765;28;94370;-54
2022/09/05 03:48:11;;;;;;;4.57;2.90;;;29.40;74.60;;;;;;5033213;28;93719;-52
2022/09/05 03:51:00;;;;;;;3.77;2.80;;;29.40;74.70;;;;;;5036256;28;92056;-52
2022/09/05 03:54:20;;;;;;;6.90;2.80;;;29.40;74.70;;;;;;5038051;28;91312;-52
2022/09/05 03:57:42;;;;;;;5.67;3.27;;;29.40;74.70;;;;;;5036655;28;92870;-52
2022/09/05 04:00:19;;;;;;;6.60;4.03;;;29.40;75.60;;;;;;5017606;28;92502;-52
2022/09/05 04:03:05;;;;;;;5.77;4.47;;;29.40;74.90;;;;;;5037665;28;93063;-54
2022/09/05 04:05:55;;;;;;;4.63;3.67;;;29.40;74.80;;;;;;5038062;28;92091;-54
2022/09/05 04:08:47;;;;;;;8.83;4.27;;;29.40;75.00;;;;;;5037888;28;92776;-53
2022/09/05 04:11:18;;;;;;;6.10;3.87;;;29.40;75.10;;;;;;5036605;28;93865;-53
2022/09/05 04:13:48;;;;;;;6.30;4.50;;;29.40;75.00;;;;;;5037500;28;92096;-53
2022/09/05 04:16:18;;;;;;;7.80;4.23;;;29.40;75.00;;;;;;5036110;28;92120;-53
2022/09/05 04:18:46;;;;;;;6.60;3.40;;;29.40;75.00;;;;;;5035307;28;94082;-53
2022/09/05 04:21:16;;;;;;;6.93;4.20;;;29.40;75.00;;;;;;5036301;28;92816;-53
2022/09/05 04:23:52;;;;;;;8.20;4.17;;;29.40;74.90;;;;;;5038157;28;92058;-52
2022/09/05 04:26:27;;;;;;;7.77;4.10;;;29.40;74.90;;;;;;5037134;28;93830;-53
2022/09/05 04:29:02;;;;;;;5.20;3.97;;;29.30;74.80;;;;;;5036018;27;95417;-52
2022/09/05 04:31:37;;;;;;;7.20;3.53;;;29.30;74.80;;;;;;5037550;28;92842;-52
2022/09/05 04:34:17;;;;;;;5.30;3.40;;;;;;;;;;5037484;28;92101;-54
2022/09/05 04:36:45;;;;;;;4.73;3.33;;;29.20;72.00;;;;;;5037942;28;92085;-53
2022/09/05 04:39:32;;;;;;;4.77;3.03;;;29.30;74.80;;;;;;5037476;28;94079;-53
2022/09/05 04:42:13;;;;;;;5.03;3.20;;;29.30;74.80;;;;;;5036871;28;92738;-52
2022/09/05 04:44:43;;;;;;;5.83;3.50;;;29.30;74.70;;;;;;5038425;28;92071;-52
2022/09/05 04:47:13;;;;;;;5.17;2.70;;;29.30;74.60;;;;;;5040168;27;91927;-53
2022/09/05 04:49:45;;;;;;;5.97;3.30;;;29.30;74.90;;;;;;5043630;27;93100;-54
2022/09/05 04:52:44;;;;;;;4.93;2.73;;;29.30;74.80;;;;;;5037318;28;93871;-52
2022/09/05 04:55:13;;;;;;;4.03;2.47;;;29.30;74.80;;;;;;5037998;28;92814;-52
2022/09/05 04:57:45;;;;;;;3.47;2.30;;;29.30;74.80;;;;;;5036765;28;92238;-52
2022/09/05 05:00:14;;;;;;;4.70;2.23;;;29.20;74.80;;;;;;5037091;28;94306;-54
2022/09/05 05:03:03;;;;;;;3.37;2.10;;;29.30;74.70;;;;;;5036876;28;93350;-54
2022/09/05 05:05:55;;;;;;;2.87;1.80;;;29.30;74.80;;;;;;5037768;28;91991;-52
2022/09/05 05:08:45;;;;;;;2.57;2.17;;;29.30;74.70;;;;;;5040879;28;94069;-52
2022/09/05 05:11:15;;;;;;;2.50;1.83;;;29.30;74.60;;;;;;5040842;27;92941;-53
2022/09/05 05:14:07;;;;;;;1.97;1.67;;;29.30;74.60;;;;;;5041049;28;92398;-52
2022/09/05 05:16:57;;;;;;;3.47;1.87;;;29.30;74.60;;;;;;5040480;28;92167;-54
2022/09/05 05:19:46;;;;;;;3.90;2.10;;;29.30;74.60;;;;;;5040974;28;92134;-52
2022/09/05 05:22:34;;;;;;;1.87;1.63;;;29.30;74.60;;;;;;5039990;28;96614;-54
2022/09/05 05:25:02;;;;;;;2.50;1.80;;;29.30;74.60;;;;;;5040499;28;94807;-54
2022/09/05 05:27:32;;;;;;;1.47;1.10;;;29.30;74.40;;;;;;5040633;28;92015;-54
2022/09/05 05:30:03;;;;;;;2.17;1.43;;;29.30;74.30;;;;;;5039421;28;92093;-54
2022/09/05 05:32:32;;;;;;;1.40;1.30;;;29.30;74.30;;;;;;5040244;28;93331;-53
2022/09/05 05:35:14;;;;;;;2.17;1.20;;;29.30;74.00;;;;;;5038543;28;92700;-52
2022/09/05 05:37:43;;;;;;;1.37;1.00;;;29.30;74.00;;;;;;5039392;28;92151;-54
2022/09/05 05:40:18;;;;;;;0.80;0.80;;;29.40;73.90;;;;;;5039692;27;91472;-53
2022/09/05 05:42:46;;;;;;;1.20;1.10;;;29.40;73.80;;;;;;5038520;28;94194;-53
2022/09/05 05:45:18;;;;;;;1.30;1.20;;;29.40;73.60;;;;;;5038515;28;93849;-53
2022/09/05 05:47:47;;;;;;;2.10;1.10;;;29.40;73.50;;;;;;5039266;27;93093;-53
2022/09/05 05:50:22;;;;;;;2.23;1.10;;;29.40;73.50;;;;;;5038242;28;92733;-53
2022/09/05 05:53:05;;;;;;;1.10;1.00;;;29.40;73.40;;;;;;5038484;28;94276;-55
2022/09/05 05:55:54;;;;;;;2.30;1.10;;;29.40;73.30;;;;;;5038543;28;93884;-53
2022/09/05 05:58:59;;;;;;;1.20;0.90;;;29.40;73.30;;;;;;5026188;28;92053;-56
2022/09/05 06:01:50;;;;;;;1.30;0.90;;;29.40;73.50;;;;;;5019334;28;92348;-54
2022/09/05 06:04:51;;;;;;;1.67;0.90;;;29.40;73.50;;;;;;5038837;28;94152;-53
2022/09/05 06:07:25;;;;;;;0.57;0.57;;;29.30;73.60;;;;;;5007806;28;93921;-53
2022/09/05 06:10:23;;;;;;;1.60;1.17;;;29.30;73.60;;;;;;5033068;28;92085;-55
2022/09/05 06:13:31;;;;;;;1.57;0.90;;;29.30;73.50;;;;;;5040496;28;92090;-54
2022/09/05 06:16:31;;;;;;;0.80;0.80;;;29.30;73.50;;;;;;5039534;28;93648;-54
2022/09/05 06:19:24;;;;;;;1.83;0.87;;;29.30;73.20;;;;;;5038463;27;94712;-53
2022/09/05 06:22:45;;;;;;;1.23;0.90;;;29.30;74.20;;;;;;5040831;28;92002;-53
2022/09/05 06:26:02;;;;;;;1.43;0.93;;;29.30;73.20;;;;;;5039650;28;92132;-54
2022/09/05 06:28:36;;;;;;;1.93;0.77;;;29.30;73.10;;;;;;5038922;28;94374;-54
2022/09/05 06:31:17;;;;;;;1.27;0.80;;;29.20;73.00;;;;;;5039311;28;94103;-52
2022/09/05 06:34:08;;;;;;;0.77;0.77;;;29.10;72.80;;;;;;5040457;28;92004;-52
2022/09/05 06:36:58;;;;;;;1.80;1.10;;;29.20;72.90;;;;;;5039607;28;91407;-54
2022/09/05 06:39:35;;;;;;;1.30;0.90;;;29.20;72.90;;;;;;5038635;28;93268;-55
2022/09/05 06:42:16;;;;;;;0.60;0.60;;;29.20;73.10;;;;;;5039437;28;92735;-54
2022/09/05 06:45:09;;;;;;;1.70;0.93;;;;;;;;;;5039240;28;92961;-53
2022/09/05 06:47:58;;;;;;;0.60;0.60;;;29.10;69.90;;;;;;5039024;28;92076;-55
2022/09/05 06:50:30;;;;;;;1.20;0.70;;;29.20;72.80;;;;;;5039503;28;94536;-54
2022/09/05 06:53:39;;;;;;;1.83;1.00;;;29.20;72.70;;;;;;5039422;28;94479;-53
2022/09/05 06:56:33;;;;;;;0.97;0.80;;;29.30;72.60;;;;;;5037477;27;91921;-53
2022/09/05 06:59:33;;;;;;;1.03;0.87;;;29.20;72.50;;;;;;5008500;28;92359;-54
2022/09/05 07:02:07;;;;;;;3.07;0.70;;;29.30;72.70;;;;;;5031983;28;92101;-53
2022/09/05 07:04:36;;;;;;;1.60;1.20;;;29.30;72.60;;;;;;5020128;28;94035;-53
2022/09/05 07:07:27;;;;;;;0.70;0.60;;;29.30;72.60;;;;;;5038721;28;91990;-54
2022/09/05 07:09:58;;;;;;;1.33;0.90;;;29.30;72.60;;;;;;5038846;28;92109;-54
2022/09/05 07:12:27;;;;;;;1.33;0.83;;;29.30;72.60;;;;;;5038171;28;95157;-53
2022/09/05 07:15:00;;;;;;;1.23;1.00;;;29.30;72.50;;;;;;5037439;28;94917;-54
2022/09/05 07:17:38;;;;;;;0.90;0.70;;;;;;;;;;5037993;28;92107;-55
2022/09/05 07:20:26;;;;;;;0.73;0.53;;;29.30;69.70;;;;;;5038352;27;92142;-55
2022/09/05 07:22:58;;;;;;;0.50;0.50;;;29.40;72.70;;;;;;5038340;28;94188;-55
2022/09/05 07:25:47;;;;;;;2.93;0.83;;;;;;;;;;5038016;28;92581;-55
2022/09/05 07:28:15;;;;;;;0.63;0.60;;;29.30;70.00;;;;;;5037900;28;92910;-55
2022/09/05 07:30:59;;;;;;;3.37;1.07;;;29.40;72.70;;;;;;5038078;28;91424;-54
2022/09/05 07:33:28;;;;;;;3.97;1.07;;;29.30;72.60;;;;;;5038232;28;93002;-55
2022/09/05 07:35:58;;;;;;;2.93;0.83;;;;;;;;;;5038340;28;92896;-52
2022/09/05 07:38:28;;;;;;;1.37;0.87;;;;;;;;;;5037645;28;92947;-52
2022/09/05 07:41:19;;;;;;;0.80;0.80;;;;;;;;;;5038095;28;92159;-52
2022/09/05 07:43:47;;;;;;;0.73;0.70;;;29.30;69.90;;;;;;5037190;28;94248;-53
2022/09/05 07:46:17;;;;;;;0.63;0.63;;;29.20;72.60;;;;;;5037642;28;92789;-52
2022/09/05 07:48:46;;;;;;;1.23;0.70;;;;;;;;;;5038636;28;91952;-52
2022/09/05 07:51:17;;;;;;;1.50;1.03;;;;;;;;;;5038491;28;92033;-52
2022/09/05 07:54:09;;;;;;;1.37;0.77;;;;;;;;;;5037959;28;92898;-52
2022/09/05 07:57:02;;;;;;;1.10;0.67;;;29.20;70.00;;;;;;5037454;28;92464;-52
2022/09/05 07:59:51;;;;;;;1.67;0.80;;;;;;;;;;5038080;28;92041;-52
2022/09/05 08:02:20;;;;;;;1.73;1.23;;;;;;;;;;5037591;28;92583;-52
2022/09/05 08:04:48;;;;;;;1.07;0.70;;;;;;;;;;5036343;28;95322;-51
2022/09/05 08:07:18;;;;;;;0.90;0.70;;;;;;;;;;5036608;28;93422;-51
2022/09/05 08:10:09;;;;;;;0.60;0.40;;;29.20;69.70;;;;;;5038000;28;91975;-52
2022/09/05 08:12:43;;;;;;;0.80;0.73;;;;;;;;;;5017875;28;92117;-52
2022/09/05 08:15:31;;;;;;;0.60;0.60;;;;;;;;;;5016986;28;92723;-51
2022/09/05 08:18:21;;;;;;;0.97;0.70;;;;;;;;;;5017941;28;95407;-51
2022/09/05 08:20:51;;;;;;;0.93;0.70;;;;;;;;;;5018909;28;92069;-51
2022/09/05 08:23:24;;;;;;;0.70;0.70;;;;;;;;;;5019553;28;91210;-52
2022/09/05 08:25:56;;;;;;;1.10;0.80;;;;;;;;;;5020074;28;94053;-52
2022/09/05 08:28:25;;;;;;;0.57;0.43;;;;;;;;;;5037496;28;92717;-51
2022/09/05 08:31:08;;;;;;;0.97;0.73;;;;;;;;;;5037203;28;92994;-52
2022/09/05 08:33:37;;;;;;;0.63;0.60;;;;;;;;;;5037817;28;92560;-51
2022/09/05 08:36:06;;;;;;;0.80;0.50;;;;;;;;;;5036017;28;93434;-51
2022/09/05 08:38:37;;;;;;;0.83;0.80;;;;;;;;;;5036996;28;93881;-52
2022/09/05 08:41:11;;;;;;;1.73;0.83;;;;;;;;;;5038701;28;92186;-52
2022/09/05 08:43:41;;;;;;;0.60;0.60;;;;;;;;;;5040448;28;92893;-51
2022/09/05 08:46:31;;;;;;;1.23;0.90;;;;;;;;;;5039970;28;92966;-53
2022/09/05 08:49:40;;;;;;;0.80;0.80;;;;;;;;;;5040654;28;93778;-51
2022/09/05 08:52:14;;;;;;;0.63;0.63;;;;;;;;;;5020398;28;92144;-51
2022/09/05 08:54:46;;;;;;;1.03;0.73;;;;;;;;;;5038905;28;92071;-53
2022/09/05 08:57:17;;;;;;;0.50;0.50;;;;;;;;;;5040627;28;94291;-51
2022/09/05 08:59:46;;;;;;;1.70;0.93;;;;;;;;;;5040902;28;94821;-51
2022/09/05 09:03:01;;;;;;;0.83;0.50;;;;;;;;;;5021108;28;91920;-50
2022/09/05 09:05:36;;;;;;;0.77;0.70;;;;;;;;;;5039530;28;91796;-52
2022/09/05 09:08:25;;;;;;;1.00;0.60;;;;;;;;;;5041213;28;92701;-52
2022/09/05 09:10:56;;;;;;;1.03;0.73;;;;;;;;;;5040613;28;93805;-53
2022/09/05 09:13:34;;;;;;;0.77;0.70;;;;;;;;;;5041336;28;92079;-50
2022/09/05 09:16:05;;;;;;;0.77;0.60;;;;;;;;;;5041172;28;91397;-52
2022/09/05 09:18:38;;;;;;;0.40;0.40;;;;;;;;;;5020775;28;94234;-52
2022/09/05 09:21:14;;;;;;;0.87;0.43;;;;;;;;;;5020944;28;93817;-52
2022/09/05 09:23:44;;;;;;;0.93;0.50;;;;;;;;;;5024545;28;93148;-52
2022/09/05 09:26:14;;;;;;;4.20;1.20;;;;;;;;;;5040616;28;92197;-54
2022/09/05 09:28:51;;;;;;;1.23;0.77;;;;;;;;;;5037814;28;93077;-51
2022/09/05 09:31:25;;;;;;;0.70;0.60;;;;;;;;;;5036492;28;92863;-51
2022/09/05 09:33:55;;;;;;;0.60;0.60;;;;;;;;;;5035531;28;92118;-54
2022/09/05 09:36:35;;;;;;;0.60;0.53;;;;;;;;;;5033799;28;91999;-52
2022/09/05 09:39:06;;;;;;;0.47;0.47;;;;;;;;;;5040893;28;94204;-51
2022/09/05 09:42:16;;;;;;;0.60;0.60;;;;;;;;;;5040678;28;92481;-51
2022/09/05 09:45:20;;;;;;;0.70;0.60;;;;;;;;;;5040433;28;92023;-51
2022/09/05 09:48:11;;;;;;;0.50;0.50;;;;;;;;;;5021019;28;92092;-51
2022/09/05 09:50:43;;;;;;;1.17;0.90;;;;;;;;;;5019996;28;94288;-51
2022/09/05 09:53:39;;;;;;;3.20;0.53;;;;;;;;;;5038239;27;94265;-51
2022/09/05 09:56:25;;;;;;;1.27;0.50;;;;;;;;;;5040086;28;92029;-51
2022/09/05 09:58:59;;;;;;;2.73;0.97;;;;;;;;;;4990660;28;92176;-51
2022/09/05 10:01:32;;;;;;;2.10;0.70;;;;;;;;;;5040218;28;94225;-51
2022/09/05 10:04:19;;;;;;;0.50;0.40;;;;;;;;;;5040989;28;93807;-51
2022/09/05 10:07:34;;;;;;;0.60;0.60;;;;;;;;;;5033604;28;92433;-51
2022/09/05 10:10:35;;;;;;;1.07;0.63;;;;;;;;;;5040420;28;91297;-51
2022/09/05 10:13:27;;;;;;;0.50;0.50;;;;;;;;;;5034450;28;95733;-52
2022/09/05 10:16:10;;;;;;;0.70;0.70;;;;;;;;;;5038512;27;94080;-52
2022/09/05 10:18:41;;;;;;;0.70;0.70;;;;;;;;;;5039286;28;93034;-51
2022/09/05 10:21:39;;;;;;;1.60;0.77;;;;;;;;;;5039881;28;92486;-50
2022/09/05 10:24:17;;;;;;;0.80;0.80;;;;;;;;;;4938338;28;94274;-53
2022/09/05 10:26:56;;;;;;;0.70;0.60;;;;;;;;;;5003511;28;92967;-52
2022/09/05 10:29:38;;;;;;;0.73;0.70;;;;;;;;;;5037928;28;94148;-51
2022/09/05 10:32:07;;;;;;;0.50;0.50;;;;;;;;;;5039146;28;91995;-51
2022/09/05 10:34:57;;;;;;;2.20;0.70;;;;;;;;;;5038908;28;95505;-51
2022/09/05 10:37:47;;;;;;;0.57;0.57;;;;;;;;;;5039094;28;95094;-53
2022/09/05 10:40:18;;;;;;;1.10;0.80;;;;;;;;;;5038437;28;92052;-52
2022/09/05 10:42:48;;;;;;;4.90;1.00;;;;;;;;;;5039062;28;92078;-52
2022/09/05 10:45:28;;;;;;;0.70;0.70;;;;;;;;;;5038182;28;94100;-51
2022/09/05 10:48:07;;;;;;;0.50;0.50;;;;;;;;;;5038469;28;93787;-51
2022/09/05 10:50:42;;;;;;;0.50;0.50;;;;;;;;;;5033087;28;92224;-51
2022/09/05 10:53:16;;;;;;;0.70;0.60;;;;;;;;;;5039406;28;92037;-51
2022/09/05 10:55:50;;;;;;;1.20;0.73;;;;;;;;;;5038693;28;94293;-51
2022/09/05 10:58:24;;;;;;;0.43;0.43;;;;;;;;;;5038529;28;93869;-51
2022/09/05 11:01:17;;;;;;;0.37;0.37;;;;;;;;;;5039778;28;91970;-51
2022/09/05 11:04:09;;;;;;;0.93;0.60;;;;;;;;;;5039883;27;91258;-52
2022/09/05 11:06:47;;;;;;;0.60;0.60;;;;;;;;;;5039681;28;94081;-51
2022/09/05 11:09:18;;;;;;;1.03;0.80;;;;;;;;;;5021011;28;92690;-51
2022/09/05 11:11:47;;;;;;;3.03;1.10;;;;;;;;;;5039146;28;93006;-51
2022/09/05 11:14:26;;;;;;;0.57;0.40;;;;;;;;;;5039315;28;91937;-51
2022/09/05 11:16:54;;;;;;;0.40;0.40;;;;;;;;;;5038372;28;94274;-51
2022/09/05 11:19:25;;;;;;;0.97;0.70;;;;;;;;;;5038727;28;92559;-51
2022/09/05 11:21:54;;;;;;;0.43;0.43;;;;;;;;;;5037628;27;92206;-53
2022/09/05 11:24:45;;;;;;;0.57;0.50;;;;;;;;;;5039170;28;92048;-52
2022/09/05 11:27:16;;;;;;;0.97;0.63;;;;;;;;;;5036206;28;94206;-51
2022/09/05 11:29:55;;;;;;;0.60;0.60;;;;;;;;;;5038561;28;92853;-51
2022/09/05 11:32:28;;;;;;;1.07;0.73;;;;;;;;;;5037390;28;92097;-51
2022/09/05 11:35:18;;;;;;;1.03;0.70;;;;;;;;;;5038687;28;92137;-51
2022/09/05 11:38:24;;;;;;;1.43;0.60;;;;;;;;;;5037033;28;93712;-51
2022/09/05 11:41:33;;;;;;;1.57;0.80;;;;;;;;;;5037141;28;96213;-51
2022/09/05 11:44:16;;;;;;;0.93;0.50;;;;;;;;;;5038455;28;92482;-51
2022/09/05 11:47:01;;;;;;;0.53;0.50;;;;;;;;;;5038880;28;92081;-53
2022/09/05 11:49:55;;;;;;;0.77;0.50;;;;;;;;;;5038092;28;92920;-50
2022/09/05 11:52:41;;;;;;;1.20;0.47;;;;;;;;;;5037484;28;92252;-51
2022/09/05 11:55:16;;;;;;;0.40;0.40;;;;;;;;;;5038583;28;92064;-51
2022/09/05 11:57:51;;;;;;;0.50;0.50;;;;;;;;;;5039961;28;91218;-51
2022/09/05 12:00:23;;;;;;;0.57;0.50;;;30.50;66.90;;;;;;5039201;28;95003;-51
2022/09/05 12:03:38;;;;;;;0.70;0.60;;;;;;;;;;5039330;28;92300;-51
2022/09/05 12:06:31;;;;;;;1.03;0.70;;;;;;;;;;5038554;28;92946;-51
2022/09/05 12:09:01;;;;;;;0.57;0.53;;;30.70;66.90;;;;;;5039056;28;91986;-51
2022/09/05 12:11:39;;;;;;;0.60;0.60;;;;;;;;;;5038715;28;93091;-52
2022/09/05 12:14:23;;;;;;;0.60;0.60;;;30.80;66.80;;;;;;5038534;28;92801;-51
2022/09/05 12:16:56;;;;;;;0.50;0.50;;;30.80;69.40;;;;;;5041783;27;92039;-52
2022/09/05 12:19:30;;;;;;;0.90;0.50;;;30.90;69.40;;;;;;5042458;28;91921;-51
2022/09/05 12:22:18;;;;;;;0.80;0.63;;;30.90;69.40;;;;;;5042277;28;94122;-52
2022/09/05 12:25:07;;;;;;;0.57;0.57;;;30.90;69.00;;;;;;5042329;28;92661;-51
2022/09/05 12:27:57;;;;;;;2.77;0.70;;;30.90;68.90;;;;;;5042601;28;91933;-52
2022/09/05 12:30:46;;;;;;;1.73;0.50;;;30.90;69.00;;;;;;5041915;28;92102;-52
2022/09/05 12:33:34;;;;;;;0.73;0.60;;;30.90;68.90;;;;;;5041340;28;96484;-51
2022/09/05 12:36:34;;;;;;;0.50;0.50;;;30.90;68.90;;;;;;5041434;28;93409;-51
2022/09/05 12:39:26;;;;;;;0.70;0.40;;;30.90;68.70;;;;;;5041880;28;91861;-51
2022/09/05 12:42:18;;;;;;;0.50;0.50;;;31.00;68.90;;;;;;5042198;28;92042;-52
2022/09/05 12:45:08;;;;;;;1.73;0.60;;;31.00;68.80;;;;;;5041747;28;94274;-51
2022/09/05 12:48:04;;;;;;;0.93;0.70;;;;;;;;;;5042131;28;93912;-52
2022/09/05 12:50:34;;;;;;;1.57;0.60;;;30.90;66.10;;;;;;4984594;28;92148;-52
2022/09/05 12:53:06;;;;;;;0.60;0.60;;;31.00;68.90;;;;;;5042566;28;91296;-52
2022/09/05 12:55:36;;;;;;;0.97;0.60;;;31.10;68.90;;;;;;5041631;28;94161;-52
2022/09/05 12:58:13;;;;;;;0.40;0.40;;;31.10;68.90;;;;;;5041739;28;93916;-51
2022/09/05 13:01:08;;;;;;;0.50;0.50;;;31.10;68.70;;;;;;5041305;28;93002;-52
2022/09/05 13:03:57;;;;;;;0.43;0.43;;;31.10;68.80;;;;;;5041678;28;92035;-51
2022/09/05 13:06:46;;;;;;;1.43;0.50;;;31.20;68.80;;;;;;5041114;28;93142;-51
2022/09/05 13:09:19;;;;;;;0.90;0.80;;;31.20;68.90;;;;;;5040944;28;93991;-51
2022/09/05 13:11:49;;;;;;;0.50;0.50;;;31.20;68.80;;;;;;5041419;28;92062;-51
2022/09/05 13:14:52;;;;;;;0.50;0.50;;;31.30;68.70;;;;;;5041332;28;92055;-51
2022/09/05 13:17:43;;;;;;;0.43;0.43;;;31.30;68.80;;;;;;5041409;28;93696;-52
2022/09/05 13:20:15;;;;;;;0.53;0.53;;;31.30;68.60;;;;;;5041858;28;93887;-52
2022/09/05 13:22:45;;;;;;;0.60;0.57;;;31.30;68.60;;;;;;5041665;28;92106;-52
2022/09/05 13:25:21;;;;;;;1.03;0.67;;;31.40;68.80;;;;;;5040900;28;92014;-51
2022/09/05 13:27:55;;;;;;;0.70;0.70;;;31.30;68.80;;;;;;5037623;28;94570;-51
2022/09/05 13:30:24;;;;;;;1.00;0.60;;;31.30;68.60;;;;;;5039450;28;94781;-52
2022/09/05 13:33:13;;;;;;;0.37;0.37;;;31.40;68.70;;;;;;5040156;28;92011;-52
2022/09/05 13:36:04;;;;;;;0.50;0.50;;;31.30;68.50;;;;;;5040507;28;92109;-51
2022/09/05 13:38:58;;;;;;;1.03;0.93;;;31.20;68.50;;;;;;5039914;28;92761;-51
2022/09/05 13:41:30;;;;;;;0.73;0.70;;;31.40;68.70;;;;;;5039429;28;93900;-51
2022/09/05 13:43:59;;;;;;;0.90;0.90;;;31.30;68.50;;;;;;5039699;28;92063;-52
2022/09/05 13:46:52;;;;;;;1.43;0.70;;;31.40;68.60;;;;;;5040252;28;91741;-52
2022/09/05 13:49:26;;;;;;;1.60;0.83;;;31.40;68.50;;;;;;5039779;28;94006;-52
2022/09/05 13:52:05;;;;;;;1.93;0.63;;;31.40;68.50;;;;;;5039438;28;92874;-51
2022/09/05 13:54:38;;;;;;;0.97;0.70;;;31.40;68.60;;;;;;5039616;28;93662;-51
2022/09/05 13:57:26;;;;;;;0.53;0.53;;;31.40;68.60;;;;;;5040689;28;91995;-51
2022/09/05 14:00:22;;;;;;;0.77;0.63;;;31.40;68.50;;;;;;5040249;28;94083;-52
2022/09/05 14:03:12;;;;;;;0.73;0.73;;;31.40;68.80;;;;;;5040725;28;94014;-52
2022/09/05 14:06:04;;;;;;;0.73;0.57;;;31.50;68.90;;;;;;5041283;28;91836;-51
2022/09/05 14:09:02;;;;;;;1.80;0.70;;;31.50;68.80;;;;;;5041128;28;92041;-53
2022/09/05 14:11:55;;;;;;;0.60;0.60;;;31.50;68.80;;;;;;5039587;28;92714;-52
2022/09/05 14:14:26;;;;;;;1.20;1.10;;;31.50;69.70;;;;;;5040087;28;93715;-52
2022/09/05 14:17:30;;;;;;;1.10;0.60;;;31.50;68.90;;;;;;5040819;28;92087;-52
2022/09/05 14:23:06;;;;;;;1.50;0.80;;;31.50;68.70;;;;;;5039766;28;95043;-52
2022/09/05 14:25:36;;;;;;;1.17;0.87;;;31.50;68.90;;;;;;5040032;28;94973;-52
2022/09/05 14:28:04;;;;;;;0.80;0.70;;;31.50;68.90;;;;;;5039450;28;92059;-52
2022/09/05 14:30:38;;;;;;;1.30;0.67;;;31.50;68.90;;;;;;5039200;28;92105;-52
2022/09/05 14:33:41;;;;;;;0.83;0.60;;;31.60;68.80;;;;;;5038717;28;92732;-52
2022/09/05 14:36:34;;;;;;;0.93;0.80;;;31.50;68.90;;;;;;5038862;28;92579;-52
2022/09/05 14:39:37;;;;;;;1.27;0.90;;;31.60;69.10;;;;;;5038864;27;92030;-52
2022/09/05 14:42:38;;;;;;;0.90;0.57;;;31.60;69.00;;;;;;5039605;28;91292;-52
2022/09/05 14:45:24;;;;;;;8.10;0.90;;;31.50;68.90;;;;;;5038572;28;94330;-52
2022/09/05 14:48:00;;;;;;;1.13;0.80;;;;;;;;;;5039190;28;93923;-52